Time;durP1;ratioP1;P1;durP2;ratioP2;P2;SDS_P1;SDS_P2;PMS_P1;PMS_P2;Temp;Humidity;BMP_temperature;BMP_pressure;BME280_temperature;BME280_humidity;BME280_pressure;Samples;Min_cycle;Max_cycle;Signal;HPM_P1;HPM_P2
2023/01/18 00:00:27;;;;;;;;;;;;;;;;;;5036044;28;20300;-64
2023/01/18 00:02:53;;;;;;;;;;;;;;;;;;5048825;28;19913;-64
2023/01/18 00:05:21;;;;;;;;;;;;;;;;;;5032789;28;19925;-64
2023/01/18 00:07:47;;;;;;;;;;;;;;;;;;5035067;28;19921;-64
2023/01/18 00:10:13;;;;;;;;;;;;;;;;;;5032922;28;19959;-64
2023/01/18 00:12:39;;;;;;;;;;;;;;;;;;5031853;28;19917;-64
2023/01/18 00:15:05;;;;;;;;;;;;;;;;;;5050468;28;19952;-64
2023/01/18 00:17:30;;;;;;;;;;;;;;;;;;5032908;28;19912;-64
2023/01/18 00:19:56;;;;;;;;;;;;;;;;;;5032506;28;20000;-64
2023/01/18 00:22:22;;;;;;;;;;;;;;;;;;5032731;28;19913;-64
2023/01/18 00:24:48;;;;;;;;;;;;;;;;;;5032573;28;19917;-64
2023/01/18 00:27:14;;;;;;;;;;;;;;;;;;5040844;28;20301;-64
2023/01/18 00:29:40;;;;;;;;;;;;;;;;;;5050661;28;19912;-64
2023/01/18 00:32:06;;;;;;;;;;;;;;;;;;5047636;28;19913;-64
2023/01/18 00:34:32;;;;;;;;;;;;;;;;;;5046289;28;19913;-64
2023/01/18 00:36:58;;;;;;;;;;;;;;;;;;5036734;28;19920;-63
2023/01/18 00:39:23;;;;;;;;;;;;;;;;;;5051416;28;19909;-63
2023/01/18 00:44:34;;;;;;;;;;;;;;;;;;5050207;28;19963;-64
2023/01/18 00:47:00;;;;;;;;;;;;;;;;;;5036288;28;19913;-64
2023/01/18 00:49:26;;;;;;;;;;;;;;;;;;5042715;28;19913;-64
2023/01/18 00:51:52;;;;;;;;;;;;;;;;;;5051619;28;19917;-64
2023/01/18 00:54:18;;;;;;;;;;;;;;;;;;5051489;28;20373;-64
2023/01/18 00:56:44;;;;;;;;;;;;;;;;;;5051779;28;19962;-64
2023/01/18 00:59:10;;;;;;;;;;;;;;;;;;5051205;28;19919;-64
2023/01/18 01:01:35;;;;;;;;;;;;;;;;;;5038396;28;20308;-64
2023/01/18 01:06:46;;;;;;;;;;;;;;;;;;5032056;28;20300;-64
2023/01/18 01:09:12;;;;;;;;;;;;;;;;;;5031928;28;19913;-63
2023/01/18 01:11:38;;;;;;;;;;;;;;;;;;5045550;28;19979;-64
2023/01/18 01:27:47;;;;;;;;;;;;;;;;;;5051677;28;20167;-63
2023/01/18 01:30:13;;;;;;;;;;;;;;;;;;5065520;28;20373;-64
2023/01/18 01:32:39;;;;;;;;;;;;;;;;;;5049741;28;19913;-64
2023/01/18 01:35:05;;;;;;;;;;;;;;;;;;5034357;28;19917;-64
2023/01/18 01:37:31;;;;;;;;;;;;;;;;;;5055139;28;19913;-64
2023/01/18 01:39:57;;;;;;;;;;;;;;;;;;5055709;28;19913;-64
2023/01/18 01:42:23;;;;;;;;;;;;;;;;;;5055307;28;19920;-63
2023/01/18 01:44:49;;;;;;;;;;;;;;;;;;5051685;28;19923;-64
2023/01/18 01:47:15;;;;;;;;;;;;;;;;;;5066505;28;19913;-64
2023/01/18 01:49:41;;;;;;;;;;;;;;;;;;5044783;28;19920;-64
2023/01/18 01:52:07;;;;;;;;;;;;;;;;;;5036656;28;20007;-64
2023/01/18 01:54:33;;;;;;;;;;;;;;;;;;5035554;28;20344;-63
2023/01/18 01:56:58;;;;;;;;;;;;;;;;;;5054997;28;19920;-64
2023/01/18 01:59:24;;;;;;;;;;;;;;;;;;5054848;28;19936;-63
2023/01/18 02:01:50;;;;;;;;;;;;;;;;;;5042060;28;19975;-63
2023/01/18 02:04:16;;;;;;;;;;;;;;;;;;5036184;28;19924;-63
2023/01/18 02:06:42;;;;;;;;;;;;;;;;;;5037411;28;19924;-64
2023/01/18 02:09:08;;;;;;;;;;;;;;;;;;5033759;28;20485;-63
2023/01/18 02:11:34;;;;;;;;;;;;;;;;;;5035191;28;20170;-64
2023/01/18 02:14:00;;;;;;;;;;;;;;;;;;5035109;28;19914;-64
2023/01/18 02:16:26;;;;;;;;;;;;;;;;;;5045535;28;20305;-64
2023/01/18 02:18:52;;;;;;;;;;;;;;;;;;5052762;28;19913;-64
2023/01/18 02:21:18;;;;;;;;;;;;;;;;;;5054695;28;19913;-63
2023/01/18 02:23:44;;;;;;;;;;;;;;;;;;5042663;28;19917;-64
2023/01/18 02:26:09;;;;;;;;;;;;;;;;;;5034812;28;19924;-64
2023/01/18 02:28:36;;;;;;;;;;;;;;;;;;5034605;28;19917;-64
2023/01/18 02:31:02;;;;;;;;;;;;;;;;;;5040915;28;19913;-64
2023/01/18 02:33:28;;;;;;;;;;;;;;;;;;5039488;28;19959;-63
2023/01/18 02:35:54;;;;;;;;;;;;;;;;;;5034712;28;19919;-64
2023/01/18 02:38:23;;;;;;;;;;;;;;;;;;5036775;28;19919;-63
2023/01/18 02:40:49;;;;;;;;;;;;;;;;;;5046477;28;19978;-63
2023/01/18 02:48:44;;;;;;;;;;;;;;;;;;5040501;28;19967;-63
2023/01/18 02:51:10;;;;;;;;;;;;;;;;;;5034461;28;19949;-63
2023/01/18 02:53:36;;;;;;;;;;;;;;;;;;5034506;28;20003;-64
2023/01/18 02:56:02;;;;;;;;;;;;;;;;;;5034345;28;20433;-64
2023/01/18 02:58:28;;;;;;;;;;;;;;;;;;5034221;28;19909;-64
2023/01/18 03:00:54;;;;;;;;;;;;;;;;;;5034461;28;19909;-64
2023/01/18 03:03:19;;;;;;;;;;;;;;;;;;5034096;28;20280;-64
2023/01/18 03:05:45;;;;;;;;;;;;;;;;;;5067785;22;19929;-55
2023/01/18 03:08:11;;;;;;;;;;;;;;;;;;5053645;28;19912;-56
2023/01/18 03:10:37;;;;;;;;;;;;;;;;;;5053951;28;20415;-51
2023/01/18 03:13:03;;;;;;;;;;;;;;;;;;5054008;28;19916;-54
2023/01/18 03:15:29;;;;;;;;;;;;;;;;;;5053929;28;19905;-52
2023/01/18 03:17:56;;;;;;;;;;;;;;;;;;5045087;28;20381;-51
2023/01/18 03:20:24;;;;;;;;;;;;;;;;;;5035224;28;19913;-54
2023/01/18 03:25:35;;;;;;;;;;;;;;;;;;5033869;28;20404;-51
2023/01/18 03:33:46;;;;;;;;;;;;;;;;;;5041209;28;19919;-54
2023/01/18 03:36:11;;;;;;;;;;;;;;;;;;5070326;28;20265;-52
2023/01/18 03:38:38;;;;;;;;;;;;;;;;;;5068085;28;19915;-52
2023/01/18 03:41:04;;;;;;;;;;;;;;;;;;5053384;28;19916;-53
2023/01/18 03:43:35;;;;;;;;;;;;;;;;;;5052975;28;19913;-54
2023/01/18 03:46:01;;;;;;;;;;;;;;;;;;5052970;28;20027;-52
2023/01/18 03:48:27;;;;;;;;;;;;;;;;;;5052131;28;19913;-51
2023/01/18 03:50:53;;;;;;;;;;;;;;;;;;5048673;28;19920;-52
2023/01/18 03:53:19;;;;;;;;;;;;;;;;;;5037965;28;20274;-51
2023/01/18 03:55:44;;;;;;;;;;;;;;;;;;5045278;28;20388;-52
2023/01/18 03:58:10;;;;;;;;;;;;;;;;;;5032831;28;19917;-53
2023/01/18 04:00:36;;;;;;;;;;;;;;;;;;5042482;28;19916;-54
2023/01/18 04:03:02;;;;;;;;;;;;;;;;;;5061386;28;19913;-54
2023/01/18 04:05:28;;;;;;;;;;;;;;;;;;5047110;28;19917;-51
2023/01/18 04:07:54;;;;;;;;;;;;;;;;;;5052335;28;20389;-52
2023/01/18 04:10:20;;;;;;;;;;;;;;;;;;5051465;28;19959;-51
2023/01/18 04:12:46;;;;;;;;;;;;;;;;;;5052512;28;20400;-51
2023/01/18 04:15:12;;;;;;;;;;;;;;;;;;5043755;28;19916;-52
2023/01/18 04:17:38;;;;;;;;;;;;;;;;;;5063524;28;19919;-53
2023/01/18 04:20:04;;;;;;;;;;;;;;;;;;5053169;28;19912;-51
2023/01/18 04:22:30;;;;;;;;;;;;;;;;;;5052698;28;20349;-51
2023/01/18 04:24:56;;;;;;;;;;;;;;;;;;5052467;28;19913;-54
2023/01/18 04:27:23;;;;;;;;;;;;;;;;;;5052647;28;19912;-54
2023/01/18 04:29:49;;;;;;;;;;;;;;;;;;5052353;28;20396;-51
2023/01/18 04:32:15;;;;;;;;;;;;;;;;;;5062922;28;19909;-54
2023/01/18 04:34:41;;;;;;;;;;;;;;;;;;5072448;28;19913;-54
2023/01/18 04:37:07;;;;;;;;;;;;;;;;;;5072380;28;20018;-52
2023/01/18 04:39:33;;;;;;;;;;;;;;;;;;5072099;28;19908;-54
2023/01/18 04:41:59;;;;;;;;;;;;;;;;;;5071132;28;19908;-51
2023/01/18 04:44:25;;;;;;;;;;;;;;;;;;5070995;28;19958;-51
2023/01/18 04:46:51;;;;;;;;;;;;;;;;;;5055279;28;19917;-54
2023/01/18 04:49:17;;;;;;;;;;;;;;;;;;5040170;28;19913;-51
2023/01/18 04:51:43;;;;;;;;;;;;;;;;;;5032099;28;19928;-53
2023/01/18 04:54:09;;;;;;;;;;;;;;;;;;5042437;28;19919;-51
2023/01/18 04:56:35;;;;;;;;;;;;;;;;;;5072028;28;19961;-51
2023/01/18 04:59:00;;;;;;;;;;;;;;;;;;5072000;28;20364;-54
2023/01/18 05:01:28;;;;;;;;;;;;;;;;;;5071868;28;19908;-50
2023/01/18 05:03:54;;;;;;;;;;;;;;;;;;5072057;28;19913;-51
2023/01/18 05:06:20;;;;;;;;;;;;;;;;;;5071891;28;19923;-54
2023/01/18 05:08:46;;;;;;;;;;;;;;;;;;5071123;28;19908;-54
2023/01/18 05:11:11;;;;;;;;;;;;;;;;;;5072081;28;19951;-54
2023/01/18 05:13:38;;;;;;;;;;;;;;;;;;5072107;28;20008;-51
2023/01/18 05:16:04;;;;;;;;;;;;;;;;;;5070691;28;19908;-53
2023/01/18 05:18:30;;;;;;;;;;;;;;;;;;5071930;28;19908;-53
2023/01/18 05:20:56;;;;;;;;;;;;;;;;;;5072008;28;19908;-52
2023/01/18 05:23:21;;;;;;;;;;;;;;;;;;5071860;28;19909;-51
2023/01/18 05:25:47;;;;;;;;;;;;;;;;;;5071854;28;19908;-51
2023/01/18 05:28:13;;;;;;;;;;;;;;;;;;5071807;28;19912;-51
2023/01/18 05:30:39;;;;;;;;;;;;;;;;;;5071848;28;20277;-51
2023/01/18 05:33:05;;;;;;;;;;;;;;;;;;5071848;28;19909;-51
2023/01/18 05:35:31;;;;;;;;;;;;;;;;;;5071665;28;19912;-53
2023/01/18 05:37:57;;;;;;;;;;;;;;;;;;5071764;28;19913;-51
2023/01/18 05:40:23;;;;;;;;;;;;;;;;;;5071600;28;19908;-52
2023/01/18 05:42:49;;;;;;;;;;;;;;;;;;5071703;28;19908;-54
2023/01/18 05:45:15;;;;;;;;;;;;;;;;;;5071505;28;19958;-51
2023/01/18 05:47:40;;;;;;;;;;;;;;;;;;5071722;28;19951;-54
2023/01/18 05:50:06;;;;;;;;;;;;;;;;;;5071512;28;19913;-54
2023/01/18 05:52:32;;;;;;;;;;;;;;;;;;5071576;28;19908;-51
2023/01/18 05:54:58;;;;;;;;;;;;;;;;;;5071451;28;20591;-51
2023/01/18 05:57:24;;;;;;;;;;;;;;;;;;5071652;28;19909;-51
2023/01/18 05:59:50;;;;;;;;;;;;;;;;;;5071206;28;19908;-51
2023/01/18 06:02:17;;;;;;;;;;;;;;;;;;5071553;28;20364;-51
2023/01/18 06:04:43;;;;;;;;;;;;;;;;;;5071220;28;19912;-52
2023/01/18 06:07:09;;;;;;;;;;;;;;;;;;5071422;28;19916;-51
2023/01/18 06:09:35;;;;;;;;;;;;;;;;;;5071279;28;19949;-54
2023/01/18 06:12:01;;;;;;;;;;;;;;;;;;5071600;28;20005;-54
2023/01/18 06:14:27;;;;;;;;;;;;;;;;;;5071371;28;20042;-51
2023/01/18 06:16:52;;;;;;;;;;;;;;;;;;5070075;28;20179;-51
2023/01/18 06:19:18;;;;;;;;;;;;;;;;;;5071137;28;19950;-53
2023/01/18 06:21:44;;;;;;;;;;;;;;;;;;5073016;28;19958;-51
2023/01/18 06:24:10;;;;;;;;;;;;;;;;;;5075031;28;19966;-51
2023/01/18 06:26:36;;;;;;;;;;;;;;;;;;5074858;28;19908;-51
2023/01/18 06:29:02;;;;;;;;;;;;;;;;;;5074732;28;20368;-51
2023/01/18 06:31:28;;;;;;;;;;;;;;;;;;5074845;28;19912;-51
2023/01/18 06:33:54;;;;;;;;;;;;;;;;;;5074692;28;19909;-51
2023/01/18 06:36:20;;;;;;;;;;;;;;;;;;5074561;28;19913;-52
2023/01/18 06:38:46;;;;;;;;;;;;;;;;;;5074593;28;19913;-51
2023/01/18 06:41:12;;;;;;;;;;;;;;;;;;5074771;28;19908;-51
2023/01/18 06:43:37;;;;;;;;;;;;;;;;;;5074460;28;19912;-54
2023/01/18 06:46:06;;;;;;;;;;;;;;;;;;5074483;28;19908;-56
2023/01/18 06:48:32;;;;;;;;;;;;;;;;;;5074278;28;19916;-51
2023/01/18 06:50:58;;;;;;;;;;;;;;;;;;5074399;28;19908;-52
2023/01/18 06:53:24;;;;;;;;;;;;;;;;;;5074429;28;19909;-51
2023/01/18 06:55:50;;;;;;;;;;;;;;;;;;5074186;28;20383;-51
2023/01/18 06:58:16;;;;;;;;;;;;;;;;;;5074446;28;19908;-52
2023/01/18 07:00:41;;;;;;;;;;;;;;;;;;5074327;28;19912;-51
2023/01/18 07:03:09;;;;;;;;;;;;;;;;;;5074239;28;20102;-51
2023/01/18 07:05:35;;;;;;;;;;;;;;;;;;5074009;28;19920;-51
2023/01/18 07:08:02;;;;;;;;;;;;;;;;;;5074018;28;20334;-51
2023/01/18 07:10:27;;;;;;;;;;;;;;;;;;5073988;28;19908;-51
2023/01/18 07:12:53;;;;;;;;;;;;;;;;;;5074056;28;19961;-51
2023/01/18 07:15:19;;;;;;;;;;;;;;;;;;5073965;28;20273;-51
2023/01/18 07:17:45;;;;;;;;;;;;;;;;;;5073905;28;19913;-51
2023/01/18 07:20:13;;;;;;;;;;;;;;;;;;5073656;28;20000;-51
2023/01/18 07:22:39;;;;;;;;;;;;;;;;;;5073845;28;19959;-51
2023/01/18 07:25:05;;;;;;;;;;;;;;;;;;5073503;28;19947;-51
2023/01/18 07:27:31;;;;;;;;;;;;;;;;;;5073656;28;20007;-52
2023/01/18 07:29:57;;;;;;;;;;;;;;;;;;5073422;28;20066;-54
2023/01/18 07:32:23;;;;;;;;;;;;;;;;;;5072913;28;19915;-52
2023/01/18 07:34:49;;;;;;;;;;;;;;;;;;5073414;28;19909;-51
2023/01/18 07:37:15;;;;;;;;;;;;;;;;;;5073544;28;19916;-51
2023/01/18 07:39:40;;;;;;;;;;;;;;;;;;5073285;28;20466;-55
2023/01/18 07:42:06;;;;;;;;;;;;;;;;;;5073413;28;19967;-52
2023/01/18 07:44:32;;;;;;;;;;;;;;;;;;5073259;28;19913;-52
2023/01/18 07:47:00;;;;;;;;;;;;;;;;;;5072547;28;20483;-52
2023/01/18 07:49:26;;;;;;;;;;;;;;;;;;5073424;28;19920;-51
2023/01/18 07:51:52;;;;;;;;;;;;;;;;;;5073184;28;19915;-52
2023/01/18 07:54:18;;;;;;;;;;;;;;;;;;5073158;28;20365;-52
2023/01/18 07:56:44;;;;;;;;;;;;;;;;;;5073040;28;19912;-51
2023/01/18 07:59:10;;;;;;;;;;;;;;;;;;5072910;28;19954;-52
2023/01/18 08:01:36;;;;;;;;;;;;;;;;;;5073057;28;19951;-52
2023/01/18 08:04:02;;;;;;;;;;;;;;;;;;5072843;28;19967;-51
2023/01/18 08:06:28;;;;;;;;;;;;;;;;;;5072796;28;19951;-51
2023/01/18 08:08:54;;;;;;;;;;;;;;;;;;5071486;28;19909;-51
2023/01/18 08:11:20;;;;;;;;;;;;;;;;;;5072811;28;19908;-51
2023/01/18 08:13:47;;;;;;;;;;;;;;;;;;5072807;28;19953;-51
2023/01/18 08:16:14;;;;;;;;;;;;;;;;;;5072926;28;20330;-53
2023/01/18 08:18:40;;;;;;;;;;;;;;;;;;5072759;28;20395;-51
2023/01/18 08:21:06;;;;;;;;;;;;;;;;;;5071362;28;19912;-51
2023/01/18 08:23:32;;;;;;;;;;;;;;;;;;5072575;28;19912;-51
2023/01/18 08:25:58;;;;;;;;;;;;;;;;;;5071184;28;19957;-51
2023/01/18 08:28:24;;;;;;;;;;;;;;;;;;5072351;28;20002;-52
2023/01/18 08:30:49;;;;;;;;;;;;;;;;;;5072348;28;20284;-51
2023/01/18 08:33:16;;;;;;;;;;;;;;;;;;5072594;28;19915;-53
2023/01/18 08:35:41;;;;;;;;;;;;;;;;;;5072433;28;20007;-53
2023/01/18 08:38:08;;;;;;;;;;;;;;;;;;5072155;28;19944;-53
2023/01/18 08:40:34;;;;;;;;;;;;;;;;;;5072184;28;19916;-51
2023/01/18 08:43:00;;;;;;;;;;;;;;;;;;5072056;28;19909;-51
2023/01/18 08:45:26;;;;;;;;;;;;;;;;;;5071293;28;19926;-51
2023/01/18 08:47:52;;;;;;;;;;;;;;;;;;5072407;28;19991;-53
2023/01/18 08:50:18;;;;;;;;;;;;;;;;;;5072304;28;20056;-51
2023/01/18 08:52:43;;;;;;;;;;;;;;;;;;5070981;28;19913;-52
2023/01/18 08:55:09;;;;;;;;;;;;;;;;;;5072048;28;19908;-52
2023/01/18 08:57:36;;;;;;;;;;;;;;;;;;5072653;28;19950;-51
2023/01/18 09:00:02;;;;;;;;;;;;;;;;;;5072208;28;19909;-51
2023/01/18 09:02:28;;;;;;;;;;;;;;;;;;5072060;28;19951;-51
2023/01/18 09:04:55;;;;;;;;;;;;;;;;;;5072350;28;20002;-54
2023/01/18 09:07:21;;;;;;;;;;;;;;;;;;5072057;28;19915;-53
2023/01/18 09:09:47;;;;;;;;;;;;;;;;;;5071738;28;19908;-53
2023/01/18 09:12:12;;;;;;;;;;;;;;;;;;5071899;28;19909;-53
2023/01/18 09:14:39;;;;;;;;;;;;;;;;;;5071757;28;19912;-56
2023/01/18 09:17:04;;;;;;;;;;;;;;;;;;5071989;28;20426;-54
2023/01/18 09:19:31;;;;;;;;;;;;;;;;;;5071710;28;19908;-55
2023/01/18 09:21:57;;;;;;;;;;;;;;;;;;5071987;28;19912;-53
2023/01/18 09:24:23;;;;;;;;;;;;;;;;;;5071863;28;19966;-53
2023/01/18 09:26:49;;;;;;;;;;;;;;;;;;5071743;28;19999;-53
2023/01/18 09:29:15;;;;;;;;;;;;;;;;;;5071729;28;20288;-53
2023/01/18 09:31:41;;;;;;;;;;;;;;;;;;5071962;28;19916;-53
2023/01/18 09:34:07;;;;;;;;;;;;;;;;;;5071777;28;19919;-53
2023/01/18 09:36:33;;;;;;;;;;;;;;;;;;5070325;28;20007;-54
2023/01/18 09:39:00;;;;;;;;;;;;;;;;;;5071396;28;20368;-53
2023/01/18 09:41:26;;;;;;;;;;;;;;;;;;5070303;28;20269;-54
2023/01/18 09:43:51;;;;;;;;;;;;;;;;;;5071545;28;19923;-54
2023/01/18 09:46:17;;;;;;;;;;;;;;;;;;5072028;28;19908;-54
2023/01/18 09:48:43;;;;;;;;;;;;;;;;;;5071579;28;19909;-53
2023/01/18 09:51:09;;;;;;;;;;;;;;;;;;5071877;28;19995;-55
2023/01/18 09:53:35;;;;;;;;;;;;;;;;;;5071792;28;20015;-57
2023/01/18 09:56:01;;;;;;;;;;;;;;;;;;5073703;28;19916;-57
2023/01/18 09:58:27;;;;;;;;;;;;;;;;;;5074130;28;19908;-57
2023/01/18 10:00:53;;;;;;;;;;;;;;;;;;5074233;28;19973;-56
2023/01/18 10:03:19;;;;;;;;;;;;;;;;;;5075498;28;19922;-55
2023/01/18 10:05:45;;;;;;;;;;;;;;;;;;5073915;28;20419;-54
2023/01/18 10:08:12;;;;;;;;;;;;;;;;;;5075255;28;20289;-57
2023/01/18 10:10:38;;;;;;;;;;;;;;;;;;5075704;28;19916;-54
2023/01/18 10:13:04;;;;;;;;;;;;;;;;;;5075117;28;19909;-53
2023/01/18 10:15:31;;;;;;;;;;;;;;;;;;5075035;28;20373;-55
2023/01/18 10:17:59;;;;;;;;;;;;;;;;;;5075135;28;19912;-54
2023/01/18 10:20:27;;;;;;;;;;;;;;;;;;5073613;28;19989;-56
2023/01/18 10:22:52;;;;;;;;;;;;;;;;;;5074992;28;20322;-53
2023/01/18 10:25:18;;;;;;;;;;;;;;;;;;5074808;28;19913;-54
2023/01/18 10:27:44;;;;;;;;;;;;;;;;;;5073560;28;19908;-53
2023/01/18 10:30:11;;;;;;;;;;;;;;;;;;5074681;28;19955;-56
2023/01/18 10:32:38;;;;;;;;;;;;;;;;;;5074903;28;19908;-55
2023/01/18 10:35:04;;;;;;;;;;;;;;;;;;5074743;28;19908;-53
2023/01/18 10:37:30;;;;;;;;;;;;;;;;;;5074662;28;19909;-55
2023/01/18 10:39:56;;;;;;;;;;;;;;;;;;5074448;28;20265;-56
2023/01/18 10:42:22;;;;;;;;;;;;;;;;;;5074621;28;19952;-56
2023/01/18 10:44:48;;;;;;;;;;;;;;;;;;5074412;28;20348;-54
2023/01/18 10:47:14;;;;;;;;;;;;;;;;;;5074546;28;20002;-55
2023/01/18 10:49:40;;;;;;;;;;;;;;;;;;5074457;28;19909;-56
2023/01/18 10:52:06;;;;;;;;;;;;;;;;;;5074468;28;19991;-56
2023/01/18 10:54:32;;;;;;;;;;;;;;;;;;5074304;28;19912;-56
2023/01/18 10:56:58;;;;;;;;;;;;;;;;;;5074388;28;20324;-54
2023/01/18 10:59:24;;;;;;;;;;;;;;;;;;5074176;28;19949;-54
2023/01/18 11:01:51;;;;;;;;;;;;;;;;;;5074386;28;19916;-53
2023/01/18 11:04:17;;;;;;;;;;;;;;;;;;5074291;28;19913;-56
2023/01/18 11:06:43;;;;;;;;;;;;;;;;;;5073086;28;20399;-55
2023/01/18 11:09:09;;;;;;;;;;;;;;;;;;5073802;28;19921;-54
2023/01/18 11:14:19;;;;;;;;;;;;;;;;;;5074069;28;20443;-54
2023/01/18 11:16:45;;;;;;;;;;;;;;;;;;5073906;28;19908;-53
2023/01/18 11:19:11;;;;;;;;;;;;;;;;;;5073746;28;19912;-54
2023/01/18 11:21:39;;;;;;;;;;;;;;;;;;5073764;28;19916;-54
2023/01/18 11:24:06;;;;;;;;;;;;;;;;;;5073796;28;19913;-55
2023/01/18 11:26:32;;;;;;;;;;;;;;;;;;5072367;28;19913;-56
2023/01/18 11:28:58;;;;;;;;;;;;;;;;;;5043329;28;19951;-55
2023/01/18 11:31:24;;;;;;;;;;;;;;;;;;5041394;28;19913;-53
2023/01/18 11:33:50;;;;;;;;;;;;;;;;;;5033286;28;19913;-54
2023/01/18 11:36:18;;;;;;;;;;;;;;;;;;5049322;28;19913;-54
2023/01/18 11:38:44;;;;;;;;;;;;;;;;;;5053038;28;20281;-54
2023/01/18 11:41:10;;;;;;;;;;;;;;;;;;5039936;28;19920;-54
2023/01/18 11:43:38;;;;;;;;;;;;;;;;;;5041572;28;19986;-54
2023/01/18 11:46:04;;;;;;;;;;;;;;;;;;5042400;28;20011;-57
2023/01/18 11:48:31;;;;;;;;;;;;;;;;;;5055556;28;19987;-54
2023/01/18 11:50:57;;;;;;;;;;;;;;;;;;5040194;28;19920;-54
2023/01/18 11:53:23;;;;;;;;;;;;;;;;;;5033038;28;19913;-56
2023/01/18 11:55:55;;;;;;;;;;;;;;;;;;5033146;28;19909;-54
2023/01/18 11:58:21;;;;;;;;;;;;;;;;;;5045370;28;20379;-54
2023/01/18 12:00:46;;;;;;;;;;;;;;;;;;5046308;28;19960;-54
2023/01/18 12:03:12;;;;;;;;;;;;;;;;;;5051019;28;20003;-54
2023/01/18 12:05:38;;;;;;;;;;;;;;;;;;5052787;28;19916;-58
2023/01/18 12:08:04;;;;;;;;;;;;;;;;;;5052661;28;20431;-57
2023/01/18 12:10:31;;;;;;;;;;;;;;;;;;5042925;28;19913;-56
2023/01/18 12:12:57;;;;;;;;;;;;;;;;;;5052916;28;20358;-56
2023/01/18 12:15:23;;;;;;;;;;;;;;;;;;5036241;28;19960;-53
2023/01/18 12:17:49;;;;;;;;;;;;;;;;;;5050444;28;19975;-56
2023/01/18 12:20:18;;;;;;;;;;;;;;;;;;5040323;28;19951;-57
2023/01/18 12:22:43;;;;;;;;;;;;;;;;;;5045349;28;19913;-55
2023/01/18 12:25:09;;;;;;;;;;;;;;;;;;5052952;28;20011;-54
2023/01/18 12:27:35;;;;;;;;;;;;;;;;;;5040545;28;20424;-54
2023/01/18 12:30:02;;;;;;;;;;;;;;;;;;5052412;28;19913;-55
2023/01/18 12:32:28;;;;;;;;;;;;;;;;;;5052008;28;19913;-56
2023/01/18 12:34:54;;;;;;;;;;;;;;;;;;5052329;28;20288;-55
2023/01/18 12:37:20;;;;;;;;;;;;;;;;;;5041547;28;19921;-56
2023/01/18 12:39:46;;;;;;;;;;;;;;;;;;5033224;28;20262;-55
2023/01/18 12:42:12;;;;;;;;;;;;;;;;;;5045247;28;20411;-54
2023/01/18 12:44:38;;;;;;;;;;;;;;;;;;5032416;28;20054;-54
2023/01/18 12:47:04;;;;;;;;;;;;;;;;;;5048899;28;19916;-54
2023/01/18 12:49:30;;;;;;;;;;;;;;;;;;5034454;28;19913;-54
2023/01/18 12:51:56;;;;;;;;;;;;;;;;;;5039906;28;19913;-53
2023/01/18 12:54:21;;;;;;;;;;;;;;;;;;5052227;28;19917;-53
2023/01/18 12:56:47;;;;;;;;;;;;;;;;;;5051784;28;20063;-56
2023/01/18 12:59:13;;;;;;;;;;;;;;;;;;5033882;28;19945;-54
2023/01/18 13:01:40;;;;;;;;;;;;;;;;;;5044863;28;19917;-53
2023/01/18 13:04:06;;;;;;;;;;;;;;;;;;5050185;28;19956;-55
2023/01/18 13:06:34;;;;;;;;;;;;;;;;;;5051857;28;19963;-56
2023/01/18 13:09:00;;;;;;;;;;;;;;;;;;5051873;28;19909;-54
2023/01/18 13:11:25;;;;;;;;;;;;;;;;;;5050349;28;20000;-54
2023/01/18 13:13:51;;;;;;;;;;;;;;;;;;5045581;28;19953;-54
2023/01/18 13:16:17;;;;;;;;;;;;;;;;;;5041691;28;19912;-53
2023/01/18 13:18:43;;;;;;;;;;;;;;;;;;5049824;28;19913;-55
2023/01/18 13:21:09;;;;;;;;;;;;;;;;;;5051859;28;20038;-53
2023/01/18 13:23:35;;;;;;;;;;;;;;;;;;5033163;28;19955;-55
2023/01/18 13:26:01;;;;;;;;;;;;;;;;;;5051736;28;19916;-53
2023/01/18 13:28:27;;;;;;;;;;;;;;;;;;5032176;28;19913;-53
2023/01/18 13:30:55;;;;;;;;;;;;;;;;;;5040375;28;19913;-56
2023/01/18 13:33:22;;;;;;;;;;;;;;;;;;5045771;28;20076;-54
2023/01/18 13:35:48;;;;;;;;;;;;;;;;;;5055931;28;20274;-54
2023/01/18 13:38:14;;;;;;;;;;;;;;;;;;5042105;28;19921;-53
2023/01/18 13:40:40;;;;;;;;;;;;;;;;;;5035827;28;19909;-54
2023/01/18 13:43:06;;;;;;;;;;;;;;;;;;5051113;28;20012;-54
2023/01/18 13:45:32;;;;;;;;;;;;;;;;;;5050005;28;19967;-54
2023/01/18 13:47:58;;;;;;;;;;;;;;;;;;5035612;28;19913;-53
2023/01/18 13:50:24;;;;;;;;;;;;;;;;;;5035645;28;19909;-53
2023/01/18 13:52:50;;;;;;;;;;;;;;;;;;5048945;28;19912;-55
2023/01/18 13:55:16;;;;;;;;;;;;;;;;;;5039209;28;20385;-53
2023/01/18 13:57:42;;;;;;;;;;;;;;;;;;5049360;28;19916;-54
2023/01/18 14:00:10;;;;;;;;;;;;;;;;;;5054612;28;19963;-54
2023/01/18 14:02:41;;;;;;;;;;;;;;;;;;5034103;28;19910;-53
2023/01/18 14:05:06;;;;;;;;;;;;;;;;;;5047990;28;19916;-54
2023/01/18 14:07:32;;;;;;;;;;;;;;;;;;5055227;28;20273;-53
2023/01/18 14:09:58;;;;;;;;;;;;;;;;;;5054969;28;19959;-53
2023/01/18 14:12:24;;;;;;;;;;;;;;;;;;5035929;28;20412;-55
2023/01/18 14:14:50;;;;;;;;;;;;;;;;;;5045402;28;20007;-56
2023/01/18 14:17:16;;;;;;;;;;;;;;;;;;5041591;28;20003;-54
2023/01/18 14:19:42;;;;;;;;;;;;;;;;;;5054810;28;19920;-52
2023/01/18 14:22:08;;;;;;;;;;;;;;;;;;5051066;28;19936;-56
2023/01/18 14:24:34;;;;;;;;;;;;;;;;;;5057776;28;19917;-56
2023/01/18 14:27:00;;;;;;;;;;;;;;;;;;5068662;28;19919;-55
2023/01/18 14:29:26;;;;;;;;;;;;;;;;;;5061591;28;19908;-53
2023/01/18 14:31:52;;;;;;;;;;;;;;;;;;5054709;28;19913;-52
2023/01/18 14:34:18;;;;;;;;;;;;;;;;;;5053428;28;20001;-56
2023/01/18 14:36:44;;;;;;;;;;;;;;;;;;5054610;28;19990;-56
2023/01/18 14:39:13;;;;;;;;;;;;;;;;;;5054033;28;19943;-52
2023/01/18 14:41:40;;;;;;;;;;;;;;;;;;5056101;28;20436;-52
2023/01/18 14:44:06;;;;;;;;;;;;;;;;;;5053281;28;19917;-52
2023/01/18 14:46:32;;;;;;;;;;;;;;;;;;5053194;28;20351;-51
2023/01/18 14:48:58;;;;;;;;;;;;;;;;;;5049393;28;19913;-52
2023/01/18 14:51:23;;;;;;;;;;;;;;;;;;5053964;28;19913;-52
2023/01/18 14:53:51;;;;;;;;;;;;;;;;;;5048952;28;20392;-51
2023/01/18 14:56:17;;;;;;;;;;;;;;;;;;5034612;28;19909;-51
2023/01/18 14:58:43;;;;;;;;;;;;;;;;;;5050733;28;19919;-51
2023/01/18 15:01:09;;;;;;;;;;;;;;;;;;5041701;28;19914;-51
2023/01/18 15:03:35;;;;;;;;;;;;;;;;;;5038678;28;19928;-51
2023/01/18 15:06:01;;;;;;;;;;;;;;;;;;5054667;28;19917;-51
2023/01/18 15:08:27;;;;;;;;;;;;;;;;;;5051214;28;20400;-51
2023/01/18 15:10:53;;;;;;;;;;;;;;;;;;5053820;28;19917;-53
2023/01/18 15:13:19;;;;;;;;;;;;;;;;;;5054339;28;20000;-51
2023/01/18 15:15:45;;;;;;;;;;;;;;;;;;5052650;28;19909;-51
2023/01/18 15:18:11;;;;;;;;;;;;;;;;;;5053905;28;19916;-51
2023/01/18 15:20:37;;;;;;;;;;;;;;;;;;5053911;28;20400;-51
2023/01/18 15:23:04;;;;;;;;;;;;;;;;;;5053774;28;19908;-52
2023/01/18 15:25:30;;;;;;;;;;;;;;;;;;5053663;28;20079;-50
2023/01/18 15:27:55;;;;;;;;;;;;;;;;;;5054160;28;19948;-51
2023/01/18 15:30:21;;;;;;;;;;;;;;;;;;5053609;28;19995;-51
2023/01/18 15:32:47;;;;;;;;;;;;;;;;;;5053610;28;20432;-51
2023/01/18 15:35:13;;;;;;;;;;;;;;;;;;5053568;28;19908;-51
2023/01/18 15:37:40;;;;;;;;;;;;;;;;;;5053521;28;19908;-51
2023/01/18 15:40:06;;;;;;;;;;;;;;;;;;5052066;28;19915;-51
2023/01/18 15:42:32;;;;;;;;;;;;;;;;;;5053527;28;20293;-52
2023/01/18 15:44:58;;;;;;;;;;;;;;;;;;5053316;28;19913;-51
2023/01/18 15:47:24;;;;;;;;;;;;;;;;;;5052100;28;19908;-50
2023/01/18 15:49:50;;;;;;;;;;;;;;;;;;5053264;28;19916;-51
2023/01/18 15:52:16;;;;;;;;;;;;;;;;;;5053302;28;19990;-52
2023/01/18 15:54:42;;;;;;;;;;;;;;;;;;5052674;28;20004;-51
2023/01/18 15:57:08;;;;;;;;;;;;;;;;;;5053157;28;19909;-51
2023/01/18 15:59:34;;;;;;;;;;;;;;;;;;5053072;28;19909;-51
2023/01/18 16:01:59;;;;;;;;;;;;;;;;;;5053195;28;19909;-51
2023/01/18 16:04:25;;;;;;;;;;;;;;;;;;5053110;28;19919;-51
2023/01/18 16:06:51;;;;;;;;;;;;;;;;;;5052882;28;20336;-51
2023/01/18 16:09:17;;;;;;;;;;;;;;;;;;5052769;28;19915;-51
2023/01/18 16:11:44;;;;;;;;;;;;;;;;;;5051721;28;19962;-51
2023/01/18 16:14:11;;;;;;;;;;;;;;;;;;5053061;28;19909;-51
2023/01/18 16:16:38;;;;;;;;;;;;;;;;;;5052845;28;20008;-51
2023/01/18 16:19:04;;;;;;;;;;;;;;;;;;5052714;28;19948;-52
2023/01/18 16:21:31;;;;;;;;;;;;;;;;;;5052690;28;19951;-51
2023/01/18 16:23:57;;;;;;;;;;;;;;;;;;5052555;28;19944;-51
2023/01/18 16:26:25;;;;;;;;;;;;;;;;;;5051474;28;19951;-52
2023/01/18 16:28:51;;;;;;;;;;;;;;;;;;5052521;28;19952;-51
2023/01/18 16:31:17;;;;;;;;;;;;;;;;;;5052577;28;20035;-51
2023/01/18 16:33:44;;;;;;;;;;;;;;;;;;5052581;28;19909;-51
2023/01/18 16:36:09;;;;;;;;;;;;;;;;;;5051275;28;19919;-52
2023/01/18 16:38:35;;;;;;;;;;;;;;;;;;5052403;28;19909;-51
2023/01/18 16:41:01;;;;;;;;;;;;;;;;;;5052601;28;20176;-51
2023/01/18 16:43:30;;;;;;;;;;;;;;;;;;5052491;28;19915;-51
2023/01/18 16:45:57;;;;;;;;;;;;;;;;;;5050941;28;19927;-52
2023/01/18 16:48:23;;;;;;;;;;;;;;;;;;5052229;28;20312;-53
2023/01/18 16:50:49;;;;;;;;;;;;;;;;;;5052289;28;19909;-51
2023/01/18 16:53:16;;;;;;;;;;;;;;;;;;5052459;28;19909;-51
2023/01/18 16:55:47;;;;;;;;;;;;;;;;;;5052167;28;20328;-51
2023/01/18 16:58:14;;;;;;;;;;;;;;;;;;5050534;28;20429;-52
2023/01/18 17:00:39;;;;;;;;;;;;;;;;;;5050861;28;19909;-52
2023/01/18 17:03:05;;;;;;;;;;;;;;;;;;5052068;28;19915;-51
2023/01/18 17:05:31;;;;;;;;;;;;;;;;;;5050979;28;20304;-51
2023/01/18 17:07:58;;;;;;;;;;;;;;;;;;5051948;28;20385;-51
2023/01/18 17:10:24;;;;;;;;;;;;;;;;;;5048980;28;19995;-51
2023/01/18 17:12:50;;;;;;;;;;;;;;;;;;5050469;28;19920;-51